Time;durP1;ratioP1;P1;durP2;ratioP2;P2;SDS_P1;SDS_P2;PMS_P1;PMS_P2;Temp;Humidity;BMP_temperature;BMP_pressure;BME280_temperature;BME280_humidity;BME280_pressure;Samples;Min_cycle;Max_cycle;Signal;HPM_P1;HPM_P2
2022/03/21 00:01:52;;;;;;;10.38;4.85;;;;;;;;;;4996411;28;20053;-71
2022/03/21 00:04:18;;;;;;;9.30;4.15;;;;;;;;;;4997992;28;20415;-71
2022/03/21 00:06:44;;;;;;;8.25;4.93;;;;;;;;;;4998080;28;20034;-72
2022/03/21 00:09:10;;;;;;;7.65;4.07;;;;;;;;;;4999600;28;20034;-71
2022/03/21 00:11:36;;;;;;;7.35;3.90;;;;;;;;;;4997988;28;20030;-71
2022/03/21 00:14:04;;;;;;;10.32;3.83;;;;;;;;;;4984011;28;20083;-72
2022/03/21 00:16:30;;;;;;;8.23;4.38;;;;;;;;;;4998286;28;20034;-71
2022/03/21 00:18:56;;;;;;;11.60;4.47;;;;;;;;;;4998149;28;20298;-71
2022/03/21 00:21:22;;;;;;;9.23;4.68;;;;;;;;;;4995061;28;20591;-72
2022/03/21 00:23:49;;;;;;;11.55;5.03;;;;;;;;;;4997230;28;20037;-71
2022/03/21 00:26:15;;;;;;;14.10;4.23;;;;;;;;;;4996822;28;20041;-71
2022/03/21 00:28:41;;;;;;;8.00;4.30;;;;;;;;;;4996192;28;20056;-72
2022/03/21 00:31:07;;;;;;;9.63;4.25;;;;;;;;;;4998913;28;20025;-71
2022/03/21 00:33:33;;;;;;;6.38;3.70;;;7.40;91.70;;;;;;4996583;28;20041;-71
2022/03/21 00:35:59;;;;;;;11.02;4.68;;;;;;;;;;4995943;28;20023;-72
2022/03/21 00:38:26;;;;;;;9.48;4.03;;;;;;;;;;4996314;28;20038;-73
2022/03/21 00:40:52;;;;;;;11.07;5.18;;;;;;;;;;4996497;28;20034;-71
2022/03/21 00:43:22;;;;;;;7.20;3.58;;;;;;;;;;4995774;28;20403;-72
2022/03/21 00:45:50;;;;;;;10.77;4.45;;;;;;;;;;4998391;28;20040;-73
2022/03/21 00:48:16;;;;;;;10.70;4.03;;;;;;;;;;4995340;28;20045;-71
2022/03/21 00:50:42;;;;;;;6.78;4.18;;;;;;;;;;4996275;28;20038;-72
2022/03/21 00:53:08;;;;;;;11.23;4.78;;;;;;;;;;4996244;28;20050;-71
2022/03/21 00:55:34;;;;;;;8.85;3.90;;;;;;;;;;4996851;28;20517;-71
2022/03/21 00:58:00;;;;;;;9.90;4.70;;;;;;;;;;4997686;28;20034;-71
2022/03/21 01:00:28;;;;;;;9.10;4.15;;;;;;;;;;4995934;28;20050;-71
2022/03/21 01:02:55;;;;;;;12.65;4.07;;;;;;;;;;4996730;28;20030;-71
2022/03/21 01:05:22;;;;;;;6.65;4.18;;;;;;;;;;4996197;28;20295;-72
2022/03/21 01:07:48;;;;;;;;;;;;;;;;;;4997273;28;20045;-72
2022/03/21 01:10:15;;;;;;;9.70;2.85;;;;;;;;;;4979154;28;19909;-71
2022/03/21 01:12:44;;;;;;;6.88;3.83;;;;;;;;;;4997744;28;20541;-71
2022/03/21 01:15:13;;;;;;;4.63;2.53;;;;;;;;;;4996362;28;20034;-72
2022/03/21 01:17:39;;;;;;;8.90;5.03;;;;;;;;;;4996249;28;20160;-71
2022/03/21 01:20:05;;;;;;;8.82;4.60;;;;;;;;;;4996410;28;20119;-72
2022/03/21 01:22:31;;;;;;;11.02;4.40;;;;;;;;;;4996526;28;20050;-72
2022/03/21 01:24:57;;;;;;;4.90;3.03;;;;;;;;;;4981228;28;20026;-72
2022/03/21 01:27:23;;;;;;;11.90;4.13;;;7.20;93.40;;;;;;4995471;28;20149;-72
2022/03/21 01:29:49;;;;;;;9.45;4.55;;;;;;;;;;4997943;28;20113;-71
2022/03/21 01:32:16;;;;;;;10.38;4.45;;;7.30;99.90;;;;;;4995836;28;20026;-71
2022/03/21 01:34:42;;;;;;;7.80;4.65;;;;;;;;;;4995087;28;20858;-71
2022/03/21 01:37:08;;;;;;;10.63;4.05;;;;;;;;;;4996774;28;20022;-72
2022/03/21 01:39:34;;;;;;;5.68;3.45;;;;;;;;;;4996882;28;20092;-71
2022/03/21 01:42:00;;;;;;;7.93;4.50;;;;;;;;;;4995290;28;20022;-71
2022/03/21 01:44:26;;;;;;;3.50;2.15;;;;;;;;;;4996034;28;20034;-72
2022/03/21 01:46:52;;;;;;;6.50;2.95;;;;;;;;;;4993863;28;20834;-72
2022/03/21 01:49:17;;;;;;;4.07;2.17;;;7.40;93.90;;;;;;4995249;28;20518;-71
2022/03/21 01:51:44;;;;;;;12.52;2.65;;;;;;;;;;4997011;28;20046;-71
2022/03/21 01:56:55;;;;;;;8.63;3.53;;;7.10;99.90;;;;;;4999074;28;20053;-71
2022/03/21 01:59:21;;;;;;;4.45;3.55;;;;;;;;;;5000100;28;20030;-72
2022/03/21 02:01:47;;;;;;;4.78;3.10;;;;;;;;;;5000430;28;20037;-71
2022/03/21 02:04:13;;;;;;;13.18;4.30;;;7.60;99.90;;;;;;4999604;28;20026;-71
2022/03/21 02:06:42;;;;;;;8.10;4.43;;;;;;;;;;5002456;28;20419;-71
2022/03/21 02:09:08;;;;;;;7.65;3.58;;;;;;;;;;5000713;28;20494;-71
2022/03/21 02:11:34;;;;;;;8.52;4.63;;;;;;;;;;4999616;28;20030;-72
2022/03/21 02:14:01;;;;;;;4.07;3.47;;;;;;;;;;4999473;28;20038;-72
2022/03/21 02:16:27;;;;;;;6.03;3.70;;;;;;;;;;4998975;28;20553;-72
2022/03/21 02:18:54;;;;;;;7.28;3.75;;;;;;;;;;4999555;28;20049;-71
2022/03/21 02:21:24;;;;;;;5.40;3.63;;;;;;;;;;4981177;28;20031;-71
2022/03/21 02:23:53;;;;;;;9.40;4.85;;;;;;;;;;4996998;28;20089;-72
2022/03/21 02:26:19;;;;;;;8.23;3.65;;;7.50;95.00;;;;;;4996865;28;20044;-72
2022/03/21 02:28:46;;;;;;;10.55;5.25;;;;;;;;;;4997438;28;20034;-72
2022/03/21 02:31:13;;;;;;;12.43;4.32;;;;;;;;;;4997078;28;20073;-71
2022/03/21 02:33:40;;;;;;;10.63;5.38;;;;;;;;;;4999121;28;20026;-71
2022/03/21 02:36:06;;;;;;;5.03;2.27;;;;;;;;;;4997672;28;20037;-71
2022/03/21 02:38:33;;;;;;;4.60;2.90;;;;;;;;;;4981121;28;20034;-71
2022/03/21 02:40:59;;;;;;;7.10;2.65;;;;;;;;;;4998903;28;20049;-72
2022/03/21 02:43:25;;;;;;;5.47;2.50;;;;;;;;;;4997924;28;20034;-71
2022/03/21 02:45:51;;;;;;;6.95;4.35;;;;;;;;;;4999141;28;20034;-71
2022/03/21 02:48:18;;;;;;;5.47;3.47;;;;;;;;;;4998066;28;20046;-72
2022/03/21 02:51:14;;;;;;;3.78;2.78;;;7.50;92.70;;;;;;4997675;28;20037;-71
2022/03/21 02:53:41;;;;;;;10.25;3.42;;;7.50;92.70;;;;;;4983269;28;20061;-71
2022/03/21 02:56:07;;;;;;;6.47;2.53;;;;;;;;;;4997535;28;20030;-72
2022/03/21 02:58:33;;;;;;;7.28;3.80;;;;;;;;;;4997406;28;20527;-71
2022/03/21 03:01:12;;;;;;;6.53;3.17;;;;;;;;;;5000498;28;20050;-72
2022/03/21 03:03:38;;;;;;;6.55;3.10;;;;;;;;;;4998331;28;20046;-72
2022/03/21 03:06:04;;;;;;;8.18;2.92;;;;;;;;;;4997449;28;20124;-72
2022/03/21 03:08:31;;;;;;;8.07;3.08;;;;;;;;;;4998741;28;20038;-72
2022/03/21 03:10:57;;;;;;;6.22;2.58;;;;;;;;;;4999219;28;20033;-72
2022/03/21 03:13:23;;;;;;;5.10;3.00;;;;;;;;;;4998231;28;20034;-71
2022/03/21 03:15:49;;;;;;;5.90;2.08;;;;;;;;;;4999557;28;20037;-71
2022/03/21 03:18:15;;;;;;;7.35;2.80;;;8.10;97.70;;;;;;4996292;28;20114;-72
2022/03/21 03:20:47;;;;;;;7.57;3.78;;;;;;;;;;4996915;28;20058;-71
2022/03/21 03:23:14;;;;;;;5.63;3.60;;;;;;;;;;4997653;28;20030;-71
2022/03/21 03:25:41;;;;;;;7.50;4.00;;;;;;;;;;4997946;28;20045;-72
2022/03/21 03:28:07;;;;;;;6.68;4.25;;;;;;;;;;4999128;28;20096;-71
2022/03/21 03:30:34;;;;;;;6.75;4.00;;;8.20;94.30;;;;;;4997325;28;20058;-71
2022/03/21 03:33:00;;;;;;;4.40;2.80;;;;;;;;;;4996300;28;20026;-71
2022/03/21 03:35:26;;;;;;;6.60;3.33;;;;;;;;;;4997185;28;20073;-70
2022/03/21 03:37:52;;;;;;;8.35;3.53;;;;;;;;;;4997007;28;20034;-71
2022/03/21 03:40:19;;;;;;;5.28;2.50;;;;;;;;;;4977855;28;20041;-72
2022/03/21 03:42:46;;;;;;;6.65;3.58;;;;;;;;;;4999886;28;20487;-71
2022/03/21 03:45:13;;;;;;;10.68;3.47;;;;;;;;;;4996634;28;20052;-71
2022/03/21 03:47:39;;;;;;;;;;;;;;;;;;4997579;28;20026;-71
2022/03/21 03:50:05;;;;;;;8.07;3.17;;;;;;;;;;4997244;28;19967;-71
2022/03/21 03:52:31;;;;;;;6.85;3.88;;;;;;;;;;4998066;28;20081;-72
2022/03/21 03:54:57;;;;;;;4.97;2.63;;;;;;;;;;4997876;28;20030;-72
2022/03/21 03:57:23;;;;;;;5.15;3.38;;;8.40;98.30;;;;;;4997477;28;20022;-71
2022/03/21 03:59:49;;;;;;;7.72;3.38;;;;;;;;;;4996438;28;20038;-71
2022/03/21 04:02:15;;;;;;;6.78;2.75;;;;;;;;;;4997865;28;20072;-73
2022/03/21 04:04:42;;;;;;;4.97;3.70;;;;;;;;;;4997497;28;20713;-71
2022/03/21 04:07:08;;;;;;;8.63;4.63;;;;;;;;;;4997508;28;20033;-73
2022/03/21 04:09:34;;;;;;;7.15;2.97;;;;;;;;;;4997369;28;20030;-71
2022/03/21 04:12:02;;;;;;;10.02;3.80;;;;;;;;;;4995379;28;20038;-72
2022/03/21 04:14:28;;;;;;;10.55;5.18;;;;;;;;;;4996806;28;20100;-72
2022/03/21 04:16:54;;;;;;;7.82;3.15;;;;;;;;;;4996662;28;20030;-72
2022/03/21 04:19:20;;;;;;;9.13;4.57;;;;;;;;;;4996291;28;20471;-71
2022/03/21 04:21:46;;;;;;;8.05;4.10;;;;;;;;;;4998165;28;20030;-72
2022/03/21 04:24:12;;;;;;;6.32;2.50;;;;;;;;;;4997139;28;20076;-72
2022/03/21 04:26:38;;;;;;;8.63;3.25;;;;;;;;;;4996664;28;20499;-71
2022/03/21 04:29:05;;;;;;;6.88;3.97;;;;;;;;;;4995964;28;20792;-71
2022/03/21 04:31:32;;;;;;;12.68;5.00;;;;;;;;;;4996258;28;20026;-71
2022/03/21 04:33:58;;;;;;;10.77;4.38;;;;;;;;;;4998238;28;20602;-72
2022/03/21 04:36:23;;;;;;;7.78;3.90;;;8.40;99.90;;;;;;4979141;28;20022;-72
2022/03/21 04:38:49;;;;;;;9.07;3.97;;;;;;;;;;4997371;28;20033;-71
2022/03/21 04:41:15;;;;;;;5.20;3.15;;;8.40;99.90;;;;;;4995999;28;20067;-70
2022/03/21 04:43:41;;;;;;;4.47;2.58;;;;;;;;;;4995716;28;20034;-71
2022/03/21 04:46:08;;;;;;;6.70;3.83;;;;;;;;;;4998362;28;20403;-72
2022/03/21 04:48:34;;;;;;;5.57;3.13;;;;;;;;;;4997057;28;20072;-71
2022/03/21 04:51:00;;;;;;;5.65;2.83;;;;;;;;;;4995743;28;20411;-71
2022/03/21 04:53:27;;;;;;;4.65;2.38;;;;;;;;;;4997380;28;20064;-71
2022/03/21 04:55:53;;;;;;;5.00;1.90;;;;;;;;;;4995600;28;20478;-71
2022/03/21 04:58:19;;;;;;;12.07;3.63;;;8.30;97.60;;;;;;4997101;28;20124;-72
2022/03/21 05:00:45;;;;;;;9.23;3.25;;;;;;;;;;4998815;28;20034;-71
2022/03/21 05:03:11;;;;;;;18.77;4.30;;;;;;;;;;4995824;28;20105;-71
2022/03/21 05:05:37;;;;;;;7.88;2.83;;;;;;;;;;4996915;28;20037;-72
2022/03/21 05:08:04;;;;;;;5.90;3.10;;;;;;;;;;4995246;28;20121;-72
2022/03/21 05:10:31;;;;;;;4.50;2.72;;;;;;;;;;4996330;28;20286;-71
2022/03/21 05:12:57;;;;;;;7.63;3.57;;;;;;;;;;4997633;28;20033;-71
2022/03/21 05:15:26;;;;;;;5.70;3.65;;;8.40;92.10;;;;;;4996661;28;20662;-71
2022/03/21 05:17:52;;;;;;;7.15;3.70;;;;;;;;;;4998186;28;20499;-71
2022/03/21 05:20:18;;;;;;;6.30;3.72;;;;;;;;;;4996443;28;20026;-72
2022/03/21 05:30:56;;;;;;;7.65;3.70;;;;;;;;;;4995832;28;20046;-71
2022/03/21 05:31:02;;;;;;;6.43;3.00;;;;;;;;;;5002122;28;20044;-72
2022/03/21 05:36:12;;;;;;;4.63;3.35;;;;;;;;;;4999384;28;20407;-72
2022/03/21 05:38:38;;;;;;;6.18;2.60;;;;;;;;;;4999364;28;20080;-72
2022/03/21 05:41:04;;;;;;;3.60;2.75;;;;;;;;;;4999953;28;20036;-72
2022/03/21 05:43:32;;;;;;;6.55;3.45;;;;;;;;;;5000005;28;20463;-71
2022/03/21 05:46:00;;;;;;;6.88;2.92;;;;;;;;;;5001433;28;20034;-71
2022/03/21 05:51:12;;;;;;;8.18;2.30;;;;;;;;;;4999384;28;20606;-71
2022/03/21 05:53:38;;;;;;;5.18;3.22;;;;;;;;;;4999627;28;20048;-71
2022/03/21 05:56:04;;;;;;;4.97;3.13;;;;;;;;;;4999296;28;20402;-71
2022/03/21 05:58:30;;;;;;;7.72;3.50;;;;;;;;;;4999916;28;20034;-71
2022/03/21 06:00:58;;;;;;;5.95;3.47;;;;;;;;;;5003282;28;20384;-71
2022/03/21 06:03:27;;;;;;;7.40;3.10;;;;;;;;;;4998783;28;20037;-72
2022/03/21 06:05:57;;;;;;;10.48;4.00;;;8.70;94.30;;;;;;4993141;28;20430;-71
2022/03/21 06:08:24;;;;;;;6.88;2.85;;;9.20;88.80;;;;;;4998368;28;20038;-71
2022/03/21 06:10:50;;;;;;;4.60;3.80;;;;;;;;;;4997487;28;20037;-72
2022/03/21 06:13:16;;;;;;;9.25;3.10;;;;;;;;;;4997684;28;20414;-72
2022/03/21 06:15:45;;;;;;;5.30;2.95;;;;;;;;;;4995411;28;20022;-72
2022/03/21 06:18:11;;;;;;;6.88;3.15;;;;;;;;;;4994917;28;20044;-71
2022/03/21 06:20:39;;;;;;;5.73;3.93;;;;;;;;;;4996114;28;20579;-71
2022/03/21 06:23:05;;;;;;;6.88;5.03;;;;;;;;;;4996029;28;20546;-71
2022/03/21 06:25:31;;;;;;;9.13;3.22;;;9.10;94.00;;;;;;4996656;28;20525;-71
2022/03/21 06:27:57;;;;;;;17.17;3.42;;;;;;;;;;4999056;28;20064;-72
2022/03/21 06:30:23;;;;;;;14.85;4.07;;;9.20;96.30;;;;;;4996068;28;20487;-72
2022/03/21 06:32:49;;;;;;;6.55;3.28;;;;;;;;;;4995208;28;20022;-73
2022/03/21 06:35:15;;;;;;;5.30;3.83;;;;;;;;;;4992172;28;20041;-72
2022/03/21 06:37:41;;;;;;;4.78;3.53;;;;;;;;;;4993932;28;20317;-72
2022/03/21 06:40:09;;;;;;;7.05;3.85;;;9.10;85.00;;;;;;4996255;28;20037;-72
2022/03/21 06:42:35;;;;;;;9.13;5.28;;;9.20;87.80;;;;;;4994589;28;20026;-72
2022/03/21 06:45:02;;;;;;;11.38;3.97;;;;;;;;;;4995699;28;20113;-71
2022/03/21 06:47:28;;;;;;;4.68;3.35;;;;;;;;;;4992754;28;20030;-72
2022/03/21 06:49:54;;;;;;;10.73;5.78;;;;;;;;;;4994358;28;20089;-70
2022/03/21 06:52:20;;;;;;;6.28;3.33;;;9.70;91.20;;;;;;4996040;28;20077;-71
2022/03/21 06:54:48;;;;;;;10.02;4.72;;;;;;;;;;4996666;28;20393;-71
2022/03/21 06:57:14;;;;;;;8.63;4.75;;;;;;;;;;4996154;28;20084;-71
2022/03/21 06:59:41;;;;;;;14.82;4.60;;;;;;;;;;4997105;28;20026;-72
2022/03/21 07:02:07;;;;;;;6.73;3.50;;;;;;;;;;4998064;28;20040;-71
2022/03/21 07:04:33;;;;;;;6.53;3.90;;;;;;;;;;4997019;28;20022;-71
2022/03/21 07:06:59;;;;;;;6.95;4.03;;;;;;;;;;4998577;28;20590;-71
2022/03/21 07:09:26;;;;;;;7.20;4.10;;;;;;;;;;4996766;28;20042;-72
2022/03/21 07:11:52;;;;;;;9.23;4.90;;;;;;;;;;4997335;28;20109;-72
2022/03/21 07:14:18;;;;;;;8.02;3.75;;;;;;;;;;4996470;28;20552;-71
2022/03/21 07:16:44;;;;;;;16.70;5.00;;;;;;;;;;4997356;28;20029;-71
2022/03/21 07:19:10;;;;;;;8.65;4.57;;;;;;;;;;4996605;28;20030;-71
2022/03/21 07:21:37;;;;;;;10.23;4.90;;;;;;;;;;4997309;28;20541;-71
2022/03/21 07:24:03;;;;;;;16.73;6.57;;;;;;;;;;4978959;28;20546;-72
2022/03/21 07:26:31;;;;;;;13.52;6.65;;;;;;;;;;4988294;28;20033;-71
2022/03/21 07:28:57;;;;;;;12.45;6.38;;;;;;;;;;4992888;28;20042;-74
2022/03/21 07:31:23;;;;;;;23.55;9.95;;;11.10;90.10;;;;;;4992020;28;20056;-72
2022/03/21 07:33:49;;;;;;;22.10;9.95;;;11.20;96.30;;;;;;4991161;28;20034;-71
2022/03/21 07:36:15;;;;;;;15.07;6.53;;;;;;;;;;4989723;28;20031;-76
2022/03/21 07:38:41;;;;;;;10.90;4.40;;;;;;;;;;4971995;28;20117;-73
2022/03/21 07:41:07;;;;;;;12.70;6.25;;;;;;;;;;4993027;28;20058;-73
2022/03/21 07:43:36;;;;;;;16.58;7.43;;;;;;;;;;4966723;28;20034;-72
2022/03/21 07:48:48;;;;;;;20.90;6.93;;;;;;;;;;4992151;28;20100;-73
2022/03/21 07:51:14;;;;;;;12.20;5.72;;;;;;;;;;4974630;28;20092;-71
2022/03/21 07:53:41;;;;;;;13.18;6.68;;;;;;;;;;4984987;28;20040;-71
2022/03/21 07:56:07;;;;;;;14.02;5.18;;;;;;;;;;4994442;28;20566;-71
2022/03/21 07:58:33;;;;;;;8.57;4.70;;;;;;;;;;4992070;28;20130;-71
2022/03/21 08:01:00;;;;;;;9.02;5.10;;;;;;;;;;4994330;28;20125;-71
2022/03/21 08:03:27;;;;;;;9.93;4.90;;;;;;;;;;4981120;28;20073;-70
2022/03/21 08:05:53;;;;;;;7.37;4.23;;;;;;;;;;4988691;28;20096;-71
2022/03/21 08:08:21;;;;;;;11.10;5.68;;;;;;;;;;4974153;28;20548;-71
2022/03/21 08:10:47;;;;;;;12.85;5.18;;;;;;;;;;4993370;28;20042;-71
2022/03/21 08:13:17;;;;;;;10.25;6.22;;;;;;;;;;4976635;28;20033;-70
2022/03/21 08:15:44;;;;;;;12.10;5.28;;;12.70;74.40;;;;;;4984304;28;20388;-71
2022/03/21 08:18:11;;;;;;;8.60;4.72;;;;;;;;;;4993392;28;20112;-71
2022/03/21 08:20:39;;;;;;;;;;;;;;;;;;4982182;28;20536;-71
2022/03/21 08:23:11;;;;;;;6.05;3.92;;;13.10;72.80;;;;;;4980488;28;19920;-71
2022/03/21 08:25:37;;;;;;;9.32;4.38;;;;;;;;;;4993920;28;20034;-72
2022/03/21 08:28:05;;;;;;;16.88;5.80;;;;;;;;;;4995600;28;20042;-74
2022/03/21 08:30:33;;;;;;;5.55;3.58;;;;;;;;;;4996540;28;20061;-72
2022/03/21 08:32:59;;;;;;;5.15;3.55;;;;;;;;;;4979556;28;20033;-73
2022/03/21 08:35:26;;;;;;;12.27;3.45;;;;;;;;;;4993761;28;20076;-72
2022/03/21 08:37:52;;;;;;;5.80;3.40;;;;;;;;;;4994987;28;20100;-72
2022/03/21 08:40:18;;;;;;;9.57;4.60;;;;;;;;;;4996084;28;20034;-71
2022/03/21 08:42:44;;;;;;;9.98;3.25;;;;;;;;;;4980375;28;20499;-73
2022/03/21 08:45:10;;;;;;;6.30;2.90;;;;;;;;;;4994587;28;20041;-71
2022/03/21 08:47:37;;;;;;;9.20;3.22;;;;;;;;;;4993870;28;20548;-72
2022/03/21 08:50:04;;;;;;;7.13;4.20;;;;;;;;;;4993913;28;20053;-72
2022/03/21 08:52:30;;;;;;;16.55;3.55;;;;;;;;;;4980557;28;20051;-73
2022/03/21 08:54:56;;;;;;;7.90;3.50;;;;;;;;;;4990894;28;20505;-72
2022/03/21 08:57:23;;;;;;;10.30;3.85;;;;;;;;;;4994177;28;20557;-72
2022/03/21 08:59:52;;;;;;;6.82;3.78;;;;;;;;;;4974537;28;20025;-71
2022/03/21 09:02:18;;;;;;;4.18;3.22;;;;;;;;;;4987288;28;20034;-73
2022/03/21 09:04:45;;;;;;;13.80;5.07;;;;;;;;;;4990097;28;20671;-72
2022/03/21 09:07:13;;;;;;;7.07;3.20;;;;;;;;;;4999690;28;20532;-72
2022/03/21 09:09:39;;;;;;;6.20;3.10;;;;;;;;;;4997820;28;20045;-72
2022/03/21 09:12:05;;;;;;;6.00;3.40;;;;;;;;;;4976208;28;20026;-72
2022/03/21 09:14:31;;;;;;;6.68;2.70;;;;;;;;;;4982644;28;20071;-72
2022/03/21 09:16:57;;;;;;;7.22;3.35;;;;;;;;;;4999325;28;20156;-72
2022/03/21 09:19:24;;;;;;;8.50;2.90;;;;;;;;;;4997506;28;20372;-71
2022/03/21 09:21:50;;;;;;;11.00;4.47;;;;;;;;;;4999169;28;20030;-72
2022/03/21 09:24:16;;;;;;;5.93;4.47;;;;;;;;;;4981333;28;20045;-71
2022/03/21 09:26:42;;;;;;;9.10;4.05;;;;;;;;;;4999393;28;20037;-72
2022/03/21 09:29:09;;;;;;;14.20;4.50;;;;;;;;;;4996252;28;20037;-72
2022/03/21 09:31:40;;;;;;;6.80;3.70;;;;;;;;;;4996008;28;20677;-71
2022/03/21 09:34:06;;;;;;;10.68;4.30;;;;;;;;;;4982334;28;20037;-72
2022/03/21 09:36:32;;;;;;;6.78;3.58;;;;;;;;;;4996534;28;20136;-73
2022/03/21 09:38:58;;;;;;;7.90;4.10;;;;;;;;;;4997304;28;20041;-72
2022/03/21 09:41:25;;;;;;;4.88;2.90;;;;;;;;;;4995913;28;20026;-72
2022/03/21 09:44:00;;;;;;;9.40;4.60;;;;;;;;;;4981108;28;20057;-74
2022/03/21 09:46:26;;;;;;;5.05;4.00;;;;;;;;;;4995833;28;20034;-71
2022/03/21 09:48:53;;;;;;;7.15;3.83;;;;;;;;;;5000528;28;20050;-73
2022/03/21 09:51:21;;;;;;;7.15;4.18;;;;;;;;;;4996335;28;20042;-71
2022/03/21 09:53:47;;;;;;;5.82;3.63;;;;;;;;;;4981377;28;20030;-72
2022/03/21 09:56:14;;;;;;;9.48;3.80;;;;;;;;;;4996060;28;20162;-72
2022/03/21 09:58:40;;;;;;;5.57;3.10;;;;;;;;;;4995569;28;20616;-72
2022/03/21 10:01:06;;;;;;;5.22;4.13;;;;;;;;;;4997840;28;20034;-73
2022/03/21 10:03:35;;;;;;;6.68;2.67;;;;;;;;;;4982056;28;20110;-73
2022/03/21 10:06:01;;;;;;;12.43;3.50;;;;;;;;;;4996080;28;20036;-74
2022/03/21 10:08:28;;;;;;;6.88;4.55;;;;;;;;;;4997557;28;20034;-72
2022/03/21 10:10:59;;;;;;;9.05;3.88;;;;;;;;;;4997870;28;20490;-71
2022/03/21 10:13:29;;;;;;;5.30;2.88;;;;;;;;;;4980467;28;20089;-71
2022/03/21 10:16:15;;;;;;;7.82;3.17;;;;;;;;;;4996984;28;20491;-71
2022/03/21 10:18:53;;;;;;;6.20;3.55;;;;;;;;;;4999051;28;20030;-73
2022/03/21 10:21:20;;;;;;;5.90;3.38;;;;;;;;;;4997158;28;20116;-72
2022/03/21 10:23:57;;;;;;;8.45;4.32;;;;;;;;;;4978849;28;20037;-71
2022/03/21 10:26:46;;;;;;;7.00;3.10;;;20.90;39.50;;;;;;4996115;28;20080;-71
2022/03/21 10:29:12;;;;;;;12.30;5.22;;;;;;;;;;4997705;28;20049;-71
2022/03/21 10:31:46;;;;;;;8.03;3.37;;;;;;;;;;4997262;28;20025;-71
2022/03/21 10:34:16;;;;;;;5.93;3.35;;;;;;;;;;4981431;28;20065;-72
2022/03/21 10:37:03;;;;;;;3.65;2.80;;;;;;;;;;4997519;28;20031;-71
2022/03/21 10:39:30;;;;;;;6.60;2.80;;;;;;;;;;4996809;28;20042;-67
2022/03/21 10:41:57;;;;;;;5.93;3.13;;;;;;;;;;4993533;28;20813;-68
2022/03/21 10:44:23;;;;;;;5.50;3.33;;;20.70;56.30;;;;;;4981421;28;20038;-71
2022/03/21 10:46:53;;;;;;;5.65;3.33;;;;;;;;;;4997106;28;20473;-71
2022/03/21 10:49:27;;;;;;;7.38;3.60;;;;;;;;;;4996012;28;20116;-72
2022/03/21 10:51:54;;;;;;;5.72;3.15;;;20.20;37.30;;;;;;4995586;28;20054;-70
2022/03/21 10:54:39;;;;;;;6.10;3.60;;;;;;;;;;4983232;28;20084;-70
2022/03/21 10:57:06;;;;;;;3.65;2.42;;;21.20;37.60;;;;;;4994261;28;20667;-70
2022/03/21 10:59:33;;;;;;;4.38;2.90;;;;;;;;;;4995807;28;20116;-70
2022/03/21 11:02:12;;;;;;;4.85;2.60;;;;;;;;;;4992707;28;20590;-71
2022/03/21 11:04:38;;;;;;;5.63;3.05;;;;;;;;;;4986829;28;20049;-71
2022/03/21 11:07:09;;;;;;;4.70;2.97;;;;;;;;;;4996377;28;20563;-68
2022/03/21 11:09:35;;;;;;;5.95;3.30;;;;;;;;;;4995919;28;20042;-69
2022/03/21 11:12:02;;;;;;;6.30;3.45;;;;;;;;;;4990804;28;20563;-69
2022/03/21 11:14:29;;;;;;;6.05;3.03;;;;;;;;;;4979813;28;20030;-69
2022/03/21 11:16:55;;;;;;;8.77;3.10;;;;;;;;;;4996274;28;20030;-68
2022/03/21 11:19:21;;;;;;;4.57;2.22;;;;;;;;;;4994873;28;20030;-70
2022/03/21 11:21:50;;;;;;;9.15;4.47;;;;;;;;;;4998506;28;20080;-69
2022/03/21 11:24:16;;;;;;;5.55;3.60;;;;;;;;;;4985988;28;20541;-68
2022/03/21 11:26:45;;;;;;;6.78;3.88;;;;;;;;;;4995268;28;20049;-69
2022/03/21 11:29:17;;;;;;;4.32;3.20;;;;;;;;;;4994950;28;20041;-69
2022/03/21 11:31:51;;;;;;;6.20;2.80;;;;;;;;;;4996851;28;20022;-69
2022/03/21 11:34:23;;;;;;;5.55;3.45;;;;;;;;;;4986677;28;20058;-69
2022/03/21 11:36:53;;;;;;;5.00;3.05;;;;;;;;;;4998230;28;20568;-68
2022/03/21 11:39:19;;;;;;;5.63;3.97;;;;;;;;;;4994917;28;20149;-68
2022/03/21 11:41:57;;;;;;;5.88;3.40;;;;;;;;;;4995852;28;20550;-68
2022/03/21 11:44:24;;;;;;;7.07;3.55;;;;;;;;;;4981382;28;20471;-68
2022/03/21 11:46:50;;;;;;;5.97;3.20;;;;;;;;;;4985433;28;20504;-70
2022/03/21 11:49:22;;;;;;;6.60;3.97;;;;;;;;;;4977155;28;20042;-70
2022/03/21 11:52:00;;;;;;;5.47;3.53;;;;;;;;;;4997064;28;20053;-72
2022/03/21 11:54:32;;;;;;;8.75;4.15;;;;;;;;;;4979363;28;20021;-72
2022/03/21 11:56:58;;;;;;;5.45;3.63;;;;;;;;;;4994059;28;20490;-72
2022/03/21 11:59:33;;;;;;;5.60;3.67;;;;;;;;;;4993750;28;20030;-73
2022/03/21 12:02:08;;;;;;;5.70;3.80;;;;;;;;;;4983082;28;20478;-70
2022/03/21 12:04:35;;;;;;;6.72;3.38;;;;;;;;;;4982601;28;20054;-73
2022/03/21 12:07:21;;;;;;;6.13;4.10;;;;;;;;;;4995780;28;20020;-73
2022/03/21 12:09:54;;;;;;;7.88;3.38;;;;;;;;;;4994685;28;20305;-69
2022/03/21 12:12:20;;;;;;;8.88;3.67;;;;;;;;;;4985232;28;20053;-71
2022/03/21 12:14:54;;;;;;;5.23;4.20;;;;;;;;;;4988459;28;20038;-70
2022/03/21 12:17:23;;;;;;;8.27;3.90;;;;;;;;;;4994853;28;20503;-70
2022/03/21 12:19:54;;;;;;;5.20;2.90;;;;;;;;;;4993344;28;20495;-70
2022/03/21 12:22:30;;;;;;;6.97;3.15;;;;;;;;;;4987111;28;20081;-70
2022/03/21 12:24:56;;;;;;;8.95;3.40;;;;;;;;;;4992652;28;20571;-69
2022/03/21 12:27:39;;;;;;;4.97;3.00;;;;;;;;;;4995446;28;20129;-70
2022/03/21 12:30:30;;;;;;;8.45;3.55;;;;;;;;;;4994576;28;20161;-70
2022/03/21 12:33:14;;;;;;;5.90;3.88;;;21.20;37.30;;;;;;4969002;28;20254;-70
2022/03/21 12:35:42;;;;;;;9.23;4.28;;;;;;;;;;4993559;28;20484;-71
2022/03/21 12:38:17;;;;;;;11.23;3.70;;;20.50;36.20;;;;;;4995064;28;20494;-69
2022/03/21 12:40:54;;;;;;;5.70;3.28;;;;;;;;;;4976575;28;20117;-70
2022/03/21 12:43:25;;;;;;;8.80;4.47;;;;;;;;;;4969580;28;20036;-70
2022/03/21 12:45:56;;;;;;;8.85;3.50;;;;;;;;;;4991094;28;20479;-69
2022/03/21 12:48:23;;;;;;;10.27;3.72;;;;;;;;;;4994991;28;20053;-69
2022/03/21 12:50:50;;;;;;;5.47;3.55;;;;;;;;;;4993959;28;20029;-69
2022/03/21 12:53:19;;;;;;;5.07;3.55;;;;;;;;;;4976973;28;20072;-70
2022/03/21 12:55:46;;;;;;;11.75;3.83;;;;;;;;;;4992754;28;20558;-69
2022/03/21 12:58:16;;;;;;;5.82;3.20;;;;;;;;;;4996325;28;20041;-70
2022/03/21 13:00:44;;;;;;;6.25;3.40;;;20.00;40.30;;;;;;4991619;28;20410;-70
2022/03/21 13:03:11;;;;;;;9.90;4.40;;;;;;;;;;4981553;28;20057;-69
2022/03/21 13:11:29;;;;;;;7.07;3.60;;;19.80;36.10;;;;;;4994989;28;20042;-70
2022/03/21 13:13:55;;;;;;;11.70;3.53;;;;;;;;;;4977207;28;20475;-73
2022/03/21 13:16:26;;;;;;;5.13;3.08;;;19.20;37.40;;;;;;4984959;28;20031;-70
2022/03/21 13:18:54;;;;;;;8.95;3.72;;;;;;;;;;4995433;28;20038;-70
2022/03/21 13:21:20;;;;;;;8.63;4.10;;;;;;;;;;4993395;28;20029;-71
2022/03/21 13:23:47;;;;;;;6.90;4.05;;;;;;;;;;4979682;28;20034;-71
2022/03/21 13:26:13;;;;;;;9.18;3.85;;;;;;;;;;4991636;28;20038;-70
2022/03/21 13:28:40;;;;;;;7.65;2.38;;;;;;;;;;4994707;28;20415;-70
2022/03/21 13:31:11;;;;;;;5.63;3.83;;;;;;;;;;4995070;28;20053;-70
2022/03/21 13:33:38;;;;;;;7.68;4.40;;;;;;;;;;4976823;28;20488;-71
2022/03/21 13:36:05;;;;;;;4.78;3.92;;;;;;;;;;4992361;28;20097;-71
2022/03/21 13:38:34;;;;;;;6.70;3.85;;;19.00;38.60;;;;;;4993898;28;20088;-70
2022/03/21 13:41:00;;;;;;;6.63;3.15;;;;;;;;;;4994826;28;20109;-69
2022/03/21 13:43:32;;;;;;;9.25;5.05;;;;;;;;;;4976136;28;20878;-71
2022/03/21 13:45:59;;;;;;;7.32;2.85;;;;;;;;;;4994921;28;20469;-71
2022/03/21 13:48:57;;;;;;;13.48;3.45;;;;;;;;;;4992218;28;20680;-70
2022/03/21 13:51:25;;;;;;;7.63;4.00;;;19.30;39.40;;;;;;4887185;29;20092;-71
2022/03/21 13:53:51;;;;;;;;;;;;;;;;;;4882023;29;20039;-70
2022/03/21 13:56:26;;;;;;;7.50;3.05;;;;;;;;;;4898627;29;20735;-70
2022/03/21 13:58:51;;;;;;;7.50;3.40;;;;;;;;;;4893673;29;20211;-71
2022/03/21 14:01:19;;;;;;;7.53;3.97;;;;;;;;;;4884511;29;20044;-71
2022/03/21 14:03:47;;;;;;;7.75;3.13;;;;;;;;;;4884257;29;20032;-71
2022/03/21 14:06:13;;;;;;;4.53;3.47;;;18.50;57.90;;;;;;4901036;29;20044;-70
2022/03/21 14:08:39;;;;;;;4.88;3.03;;;;;;;;;;4899754;29;20107;-70
2022/03/21 14:11:18;;;;;;;8.57;4.03;;;;;;;;;;4901035;29;20036;-70
2022/03/21 14:13:46;;;;;;;6.60;4.00;;;;;;;;;;4880817;29;20089;-71
2022/03/21 14:16:12;;;;;;;16.85;5.35;;;;;;;;;;4901681;29;20047;-70
2022/03/21 14:18:50;;;;;;;18.17;5.22;;;17.70;39.30;;;;;;4881175;29;20028;-71
2022/03/21 14:21:16;;;;;;;5.03;3.28;;;;;;;;;;4898250;29;20086;-70
2022/03/21 14:23:42;;;;;;;8.52;4.13;;;;;;;;;;4881948;29;20032;-71
2022/03/21 14:28:53;;;;;;;8.40;4.95;;;;;;;;;;4995112;28;20109;-70
2022/03/21 14:31:18;;;;;;;9.02;3.78;;;17.80;59.20;;;;;;4992731;28;20038;-70
2022/03/21 14:33:44;;;;;;;9.52;4.13;;;;;;;;;;4976669;28;20405;-71
2022/03/21 14:36:11;;;;;;;9.60;4.20;;;;;;;;;;4994879;28;20037;-70
2022/03/21 14:38:38;;;;;;;6.37;4.10;;;;;;;;;;4991252;28;20504;-70
2022/03/21 14:41:04;;;;;;;6.57;3.50;;;;;;;;;;4996982;28;20272;-71
2022/03/21 14:43:31;;;;;;;8.83;4.83;;;;;;;;;;4976340;28;20025;-70
2022/03/21 14:45:58;;;;;;;7.18;3.83;;;17.30;41.40;;;;;;4987650;28;20085;-70
2022/03/21 14:48:27;;;;;;;7.00;4.10;;;;;;;;;;4997061;28;20069;-70
2022/03/21 14:50:54;;;;;;;7.00;3.67;;;;;;;;;;4996346;28;20465;-70
2022/03/21 14:53:20;;;;;;;8.93;3.72;;;;;;;;;;4976112;28;20038;-70
2022/03/21 14:55:46;;;;;;;7.72;4.43;;;;;;;;;;4997069;28;20030;-70